Time;durP1;ratioP1;P1;durP2;ratioP2;P2;SDS_P1;SDS_P2;PMS_P1;PMS_P2;Temp;Humidity;BMP_temperature;BMP_pressure;BME280_temperature;BME280_humidity;BME280_pressure;Samples;Min_cycle;Max_cycle;Signal;HPM_P1;HPM_P2
2021/07/03 00:01:21;;;;;;;7.65;6.18;;;21.40;63.10;;;;;;4979342;28;20093;-77
2021/07/03 00:03:47;;;;;;;7.63;5.53;;;21.40;63.10;;;;;;4965168;28;20384;-77
2021/07/03 00:06:13;;;;;;;8.05;6.13;;;21.30;63.10;;;;;;4963796;28;20026;-77
2021/07/03 00:08:38;;;;;;;7.72;5.88;;;21.30;63.20;;;;;;4951492;28;20042;-77
2021/07/03 00:11:07;;;;;;;7.40;5.72;;;21.30;63.20;;;;;;4949794;28;20038;-77
2021/07/03 00:13:33;;;;;;;8.60;6.47;;;21.20;63.30;;;;;;4941095;28;20309;-76
2021/07/03 00:15:59;;;;;;;7.63;5.60;;;21.20;63.20;;;;;;4952875;28;20066;-76
2021/07/03 00:18:25;;;;;;;7.35;5.90;;;21.20;63.30;;;;;;4964674;28;20047;-76
2021/07/03 00:20:51;;;;;;;7.63;6.00;;;21.20;63.40;;;;;;4977459;28;20110;-76
2021/07/03 00:23:17;;;;;;;8.02;6.20;;;21.20;63.40;;;;;;4949328;28;20039;-76
2021/07/03 00:25:43;;;;;;;8.43;5.80;;;21.20;63.40;;;;;;4979276;28;20045;-76
2021/07/03 00:28:08;;;;;;;7.82;6.05;;;21.10;63.40;;;;;;4964357;28;20038;-76
2021/07/03 00:30:34;;;;;;;7.63;5.53;;;21.10;63.40;;;;;;4964727;28;20023;-76
2021/07/03 00:33:00;;;;;;;7.43;5.82;;;21.10;63.50;;;;;;4969646;28;20027;-76
2021/07/03 00:35:27;;;;;;;7.53;5.65;;;21.00;63.40;;;;;;4966003;28;20122;-76
2021/07/03 00:37:52;;;;;;;7.22;5.65;;;21.00;63.50;;;;;;4983803;28;20037;-77
2021/07/03 00:40:18;;;;;;;7.60;5.68;;;21.00;63.50;;;;;;4951127;28;20535;-76
2021/07/03 00:42:44;;;;;;;6.43;5.20;;;21.00;63.50;;;;;;4956195;28;20086;-76
2021/07/03 00:45:10;;;;;;;7.03;5.60;;;20.90;63.50;;;;;;4966888;28;20050;-77
2021/07/03 00:47:37;;;;;;;7.38;5.32;;;20.90;63.50;;;;;;4964166;28;20069;-77
2021/07/03 00:50:08;;;;;;;7.43;5.57;;;20.90;63.50;;;;;;4961018;28;20467;-76
2021/07/03 00:52:36;;;;;;;7.72;5.65;;;20.90;63.60;;;;;;4950229;28;20030;-77
2021/07/03 00:55:03;;;;;;;7.00;5.25;;;20.80;63.50;;;;;;4979905;28;20054;-76
2021/07/03 00:57:31;;;;;;;7.80;6.03;;;20.80;63.60;;;;;;4963323;28;20057;-76
2021/07/03 00:59:57;;;;;;;7.57;5.93;;;20.80;63.60;;;;;;4963799;28;20026;-77
2021/07/03 01:02:24;;;;;;;7.40;5.72;;;20.70;63.60;;;;;;4960483;28;20051;-77
2021/07/03 01:04:53;;;;;;;7.35;5.80;;;20.70;63.60;;;;;;4972066;28;20042;-76
2021/07/03 01:07:27;;;;;;;;;;;20.70;63.70;;;;;;4979703;28;20129;-76
2021/07/03 01:09:54;;;;;;;6.65;4.82;;;20.70;63.60;;;;;;4963708;28;20363;-77
2021/07/03 01:12:20;;;;;;;6.95;5.35;;;20.70;63.60;;;;;;4947408;28;20031;-77
2021/07/03 01:14:48;;;;;;;7.13;5.55;;;20.60;63.70;;;;;;4941399;28;20031;-77
2021/07/03 01:17:20;;;;;;;7.07;5.25;;;20.60;63.80;;;;;;4966801;28;20387;-76
2021/07/03 01:19:48;;;;;;;7.47;5.20;;;20.50;63.70;;;;;;4939736;29;20031;-77
2021/07/03 01:22:15;;;;;;;6.78;4.88;;;20.50;63.80;;;;;;4948112;28;20030;-77
2021/07/03 01:24:43;;;;;;;7.50;5.85;;;20.50;63.80;;;;;;4964028;28;20110;-76
2021/07/03 01:27:14;;;;;;;6.68;5.10;;;20.50;63.90;;;;;;4948056;28;20058;-77
2021/07/03 01:29:44;;;;;;;7.13;5.30;;;20.40;63.80;;;;;;4960567;28;20534;-77
2021/07/03 01:32:11;;;;;;;6.70;5.55;;;20.40;63.90;;;;;;4949948;28;20026;-77
2021/07/03 01:34:38;;;;;;;6.57;5.15;;;20.40;63.90;;;;;;4963640;28;20035;-77
2021/07/03 01:37:08;;;;;;;7.07;5.45;;;20.40;63.90;;;;;;4961300;28;20069;-77
2021/07/03 01:39:40;;;;;;;7.13;5.45;;;20.30;63.90;;;;;;4963600;28;20023;-77
2021/07/03 01:42:08;;;;;;;7.13;5.57;;;20.30;63.90;;;;;;4975976;28;20054;-76
2021/07/03 01:44:35;;;;;;;7.00;5.50;;;20.30;64.00;;;;;;4947346;28;20082;-77
2021/07/03 01:47:02;;;;;;;7.47;5.55;;;20.30;64.00;;;;;;4983750;28;20027;-77
2021/07/03 01:49:39;;;;;;;7.80;5.68;;;20.20;64.00;;;;;;4958567;28;20451;-77
2021/07/03 01:52:07;;;;;;;7.70;5.30;;;20.20;64.00;;;;;;4981314;28;20046;-77
2021/07/03 01:54:34;;;;;;;8.20;5.75;;;20.20;64.00;;;;;;4979282;28;20595;-77
2021/07/03 01:57:04;;;;;;;7.10;5.25;;;20.20;64.10;;;;;;4963131;28;20498;-77
2021/07/03 01:59:51;;;;;;;6.88;5.22;;;20.20;64.10;;;;;;4952762;28;20432;-77
2021/07/03 02:02:17;;;;;;;6.75;5.20;;;20.10;64.00;;;;;;4955982;28;20043;-78
2021/07/03 02:04:43;;;;;;;6.93;5.30;;;20.10;64.10;;;;;;4948751;28;20062;-77
2021/07/03 02:07:12;;;;;;;6.90;5.43;;;20.10;64.20;;;;;;4932083;28;20047;-77
2021/07/03 02:09:38;;;;;;;7.22;5.45;;;20.10;64.80;;;;;;4975581;28;20027;-77
2021/07/03 02:12:05;;;;;;;7.43;5.43;;;20.10;64.20;;;;;;4962179;28;20031;-77
2021/07/03 02:14:52;;;;;;;6.93;5.30;;;20.00;64.20;;;;;;4930589;28;20131;-77
2021/07/03 02:17:28;;;;;;;7.10;5.05;;;20.00;64.20;;;;;;4961475;28;20073;-78
2021/07/03 02:20:00;;;;;;;6.97;5.38;;;20.00;64.30;;;;;;4952508;28;20055;-77
2021/07/03 02:22:38;;;;;;;8.88;5.40;;;20.00;64.90;;;;;;4967358;28;20201;-77
2021/07/03 02:25:04;;;;;;;5.78;4.60;;;19.90;64.30;;;;;;4962335;28;20038;-77
2021/07/03 02:27:34;;;;;;;6.22;4.68;;;19.90;64.30;;;;;;4975361;28;20038;-77
2021/07/03 02:30:11;;;;;;;6.75;5.45;;;19.90;64.30;;;;;;4941946;28;20063;-78
2021/07/03 02:32:38;;;;;;;6.57;4.90;;;19.80;64.30;;;;;;4937736;28;20014;-77
2021/07/03 02:35:05;;;;;;;5.90;4.70;;;19.80;64.40;;;;;;4974672;28;20435;-78
2021/07/03 02:42:57;;;;;;;7.40;5.53;;;19.70;64.30;;;;;;5215185;23;20157;-77
2021/07/03 02:45:24;;;;;;;7.22;5.45;;;19.70;64.30;;;;;;4948740;28;20554;-77
2021/07/03 02:47:50;;;;;;;6.78;5.30;;;19.70;64.40;;;;;;4935473;29;20027;-77
2021/07/03 02:50:20;;;;;;;8.07;6.07;;;19.60;64.40;;;;;;4923804;29;20035;-77
2021/07/03 02:52:49;;;;;;;6.90;5.28;;;19.60;64.40;;;;;;4926298;28;20492;-77
2021/07/03 02:55:16;;;;;;;7.57;5.78;;;19.60;64.40;;;;;;4927631;29;20044;-77
2021/07/03 02:57:44;;;;;;;6.90;5.07;;;19.60;64.50;;;;;;4935348;28;20046;-77
2021/07/03 03:00:14;;;;;;;6.95;5.30;;;19.60;64.50;;;;;;4925239;28;20036;-78
2021/07/03 03:02:42;;;;;;;7.80;5.35;;;19.50;64.50;;;;;;4928308;29;20034;-77
2021/07/03 03:05:10;;;;;;;7.45;5.00;;;19.50;64.50;;;;;;4923295;29;20027;-78
2021/07/03 03:07:37;;;;;;;6.78;5.05;;;19.50;64.50;;;;;;4931997;28;20027;-78
2021/07/03 03:10:06;;;;;;;6.95;4.97;;;19.40;64.50;;;;;;4938587;28;20118;-78
2021/07/03 03:12:33;;;;;;;7.18;5.18;;;19.40;64.60;;;;;;4920872;28;20390;-78
2021/07/03 03:15:02;;;;;;;6.80;4.93;;;19.40;64.60;;;;;;4938569;29;20061;-77
2021/07/03 03:17:29;;;;;;;6.50;4.97;;;19.40;64.70;;;;;;4929105;28;20054;-78
2021/07/03 03:19:56;;;;;;;6.75;5.03;;;19.40;64.80;;;;;;4949293;28;20071;-78
2021/07/03 03:22:22;;;;;;;7.35;5.32;;;19.30;64.70;;;;;;4952555;28;20171;-79
2021/07/03 03:24:48;;;;;;;7.63;5.40;;;19.30;64.80;;;;;;4936103;29;20039;-77
2021/07/03 03:27:15;;;;;;;6.40;4.80;;;19.30;64.80;;;;;;4947759;28;20042;-77
2021/07/03 03:29:43;;;;;;;7.28;5.22;;;19.30;64.90;;;;;;4922909;29;20503;-77
2021/07/03 03:32:10;;;;;;;7.45;5.10;;;19.20;64.80;;;;;;4939011;29;20050;-77
2021/07/03 03:34:39;;;;;;;6.45;4.78;;;19.20;64.90;;;;;;4916128;29;20041;-78
2021/07/03 03:37:04;;;;;;;6.68;4.85;;;19.20;64.90;;;;;;4950778;28;20555;-77
2021/07/03 03:39:34;;;;;;;6.75;4.63;;;19.20;65.00;;;;;;4950335;28;21542;-77
2021/07/03 03:42:01;;;;;;;6.63;4.90;;;19.20;65.00;;;;;;4937209;29;20388;-77
2021/07/03 03:44:27;;;;;;;7.13;5.10;;;19.20;65.00;;;;;;4894893;29;20034;-77
2021/07/03 03:46:53;;;;;;;7.70;5.35;;;19.10;65.00;;;;;;4920323;29;20368;-77
2021/07/03 03:49:23;;;;;;;7.10;5.03;;;19.20;65.10;;;;;;4918401;29;20041;-77
2021/07/03 03:51:49;;;;;;;6.60;4.82;;;19.10;65.10;;;;;;4915481;28;20088;-77
2021/07/03 03:54:17;;;;;;;7.90;5.82;;;19.10;65.10;;;;;;4934007;28;20114;-77
2021/07/03 03:56:43;;;;;;;7.00;5.22;;;19.10;65.20;;;;;;4929696;28;20503;-77
2021/07/03 03:59:13;;;;;;;7.05;5.15;;;19.10;65.20;;;;;;4928636;29;20066;-78
2021/07/03 04:01:40;;;;;;;7.15;5.13;;;19.10;65.30;;;;;;4922089;29;20067;-78
2021/07/03 04:04:06;;;;;;;6.63;5.05;;;19.00;65.20;;;;;;4914650;29;20031;-77
2021/07/03 04:06:33;;;;;;;7.57;5.82;;;19.10;65.30;;;;;;4944042;28;20023;-77
2021/07/03 04:08:59;;;;;;;7.35;5.20;;;19.10;65.40;;;;;;4922350;29;20040;-77
2021/07/03 04:11:27;;;;;;;6.95;5.10;;;19.00;65.40;;;;;;4932270;29;20031;-77
2021/07/03 04:13:53;;;;;;;7.72;5.28;;;19.00;65.40;;;;;;4939380;28;20094;-77
2021/07/03 04:16:19;;;;;;;7.72;5.60;;;19.00;65.40;;;;;;4930183;29;20031;-77
2021/07/03 04:18:45;;;;;;;6.97;5.82;;;19.00;65.50;;;;;;4934086;28;20380;-77
2021/07/03 04:21:10;;;;;;;7.25;5.00;;;19.00;65.50;;;;;;4905641;29;20031;-77
2021/07/03 04:23:36;;;;;;;7.75;5.75;;;19.00;65.50;;;;;;4927514;29;20085;-77
2021/07/03 04:26:02;;;;;;;8.43;5.88;;;19.00;65.50;;;;;;4924401;29;20035;-77
2021/07/03 04:28:29;;;;;;;7.50;5.38;;;19.00;65.60;;;;;;4954874;28;20067;-77
2021/07/03 04:30:55;;;;;;;7.82;5.65;;;19.00;65.60;;;;;;4935870;29;20063;-76
2021/07/03 04:33:21;;;;;;;8.57;6.47;;;19.00;65.60;;;;;;4917708;29;20020;-77
2021/07/03 04:35:47;;;;;;;8.60;6.05;;;19.00;65.60;;;;;;4925708;29;20047;-77
2021/07/03 04:38:13;;;;;;;7.85;5.97;;;19.00;65.70;;;;;;4910384;29;20036;-78
2021/07/03 04:40:38;;;;;;;9.13;6.70;;;19.00;65.70;;;;;;4920744;29;20509;-77
2021/07/03 04:43:04;;;;;;;9.20;6.88;;;19.00;65.80;;;;;;4920162;29;20125;-77
2021/07/03 04:45:30;;;;;;;9.48;6.38;;;19.00;65.80;;;;;;4935293;29;20105;-77
2021/07/03 04:47:56;;;;;;;9.80;7.28;;;19.00;65.80;;;;;;4914789;29;20461;-77
2021/07/03 04:50:23;;;;;;;8.77;6.40;;;19.00;65.80;;;;;;4931672;28;20031;-76
2021/07/03 04:52:49;;;;;;;8.75;6.55;;;19.00;65.80;;;;;;4924414;28;20372;-77
2021/07/03 04:55:15;;;;;;;9.60;6.93;;;19.00;65.80;;;;;;4912698;28;20034;-77
2021/07/03 04:57:41;;;;;;;9.68;6.53;;;19.00;65.90;;;;;;4922524;28;20043;-77
2021/07/03 05:00:08;;;;;;;8.40;6.38;;;18.90;65.90;;;;;;4924057;29;20042;-77
2021/07/03 05:02:33;;;;;;;8.40;6.03;;;19.00;65.90;;;;;;4905619;29;20471;-77
2021/07/03 05:05:00;;;;;;;8.70;6.60;;;19.00;65.90;;;;;;4918365;29;20034;-77
2021/07/03 05:07:25;;;;;;;8.77;6.78;;;19.00;66.00;;;;;;4939444;28;20043;-77
2021/07/03 05:10:02;;;;;;;9.18;6.53;;;19.00;66.00;;;;;;4920105;29;20147;-77
2021/07/03 05:12:28;;;;;;;8.70;6.75;;;18.90;65.90;;;;;;4916737;28;20072;-78
2021/07/03 05:14:54;;;;;;;9.30;7.20;;;19.00;66.10;;;;;;4940914;28;20517;-77
2021/07/03 05:17:19;;;;;;;9.40;6.88;;;19.00;66.00;;;;;;4921285;29;20043;-76
2021/07/03 05:19:45;;;;;;;8.77;6.55;;;18.90;66.00;;;;;;4919441;29;20482;-77
2021/07/03 05:22:11;;;;;;;9.23;6.70;;;18.90;66.00;;;;;;4945808;28;20105;-77
2021/07/03 05:24:37;;;;;;;8.93;6.75;;;19.00;66.10;;;;;;4920242;29;20031;-77
2021/07/03 05:27:03;;;;;;;9.40;7.20;;;18.90;66.10;;;;;;4914720;28;20038;-78
2021/07/03 05:29:29;;;;;;;9.73;6.82;;;19.00;66.10;;;;;;4915906;28;20040;-77
2021/07/03 05:31:54;;;;;;;8.85;6.25;;;18.90;66.10;;;;;;4921108;28;20113;-76
2021/07/03 05:34:20;;;;;;;8.75;6.60;;;19.00;66.10;;;;;;4920448;29;20403;-77
2021/07/03 05:36:48;;;;;;;8.38;6.60;;;19.00;66.10;;;;;;4928093;29;20038;-77
2021/07/03 05:39:14;;;;;;;9.07;6.93;;;19.00;66.20;;;;;;4917658;29;20396;-77
2021/07/03 05:41:39;;;;;;;8.77;6.25;;;19.00;66.20;;;;;;4881009;29;20051;-76
2021/07/03 05:44:06;;;;;;;8.45;6.45;;;19.00;66.20;;;;;;4912643;29;20050;-76
2021/07/03 05:46:32;;;;;;;9.10;6.53;;;19.00;66.20;;;;;;4932405;29;20036;-76
2021/07/03 05:48:58;;;;;;;8.77;6.28;;;19.00;66.20;;;;;;4908150;29;20411;-77
2021/07/03 05:51:33;;;;;;;10.02;7.47;;;19.00;66.20;;;;;;4912558;29;20039;-79
2021/07/03 05:54:00;;;;;;;8.57;6.40;;;19.00;66.20;;;;;;4905661;29;20040;-77
2021/07/03 05:56:26;;;;;;;8.75;6.60;;;19.00;66.20;;;;;;4920490;29;20118;-77
2021/07/03 05:58:53;;;;;;;8.43;6.40;;;19.00;66.20;;;;;;4938725;28;20444;-77
2021/07/03 06:01:18;;;;;;;10.55;7.63;;;19.00;66.20;;;;;;4921161;29;20058;-77
2021/07/03 06:03:44;;;;;;;9.70;6.32;;;19.00;66.20;;;;;;4944072;29;20476;-77
2021/07/03 06:06:11;;;;;;;9.15;6.80;;;19.00;66.30;;;;;;4930871;29;20070;-76
2021/07/03 06:08:37;;;;;;;8.43;6.93;;;19.00;66.30;;;;;;4941228;29;20033;-77
2021/07/03 06:11:03;;;;;;;9.20;6.95;;;19.00;66.30;;;;;;4923090;29;20027;-78
2021/07/03 06:13:28;;;;;;;9.65;7.15;;;19.10;66.30;;;;;;4934348;29;20067;-77
2021/07/03 06:15:54;;;;;;;10.52;7.82;;;19.10;66.30;;;;;;4924545;29;20503;-78
2021/07/03 06:18:20;;;;;;;9.63;7.20;;;19.10;66.40;;;;;;4907828;29;20038;-77
2021/07/03 06:20:46;;;;;;;10.35;7.68;;;19.10;66.40;;;;;;4904343;29;20032;-77
2021/07/03 06:23:12;;;;;;;10.00;7.00;;;19.10;66.40;;;;;;4954789;28;20039;-77
2021/07/03 06:25:37;;;;;;;9.55;7.45;;;19.10;66.40;;;;;;4917342;29;20126;-77
2021/07/03 06:28:03;;;;;;;10.13;7.43;;;19.10;66.40;;;;;;4955812;28;20027;-78
2021/07/03 06:30:29;;;;;;;9.50;7.10;;;19.10;66.40;;;;;;4918021;28;20064;-78
2021/07/03 06:32:55;;;;;;;10.32;7.30;;;19.10;66.40;;;;;;4924484;29;20082;-77
2021/07/03 06:35:21;;;;;;;9.57;7.50;;;19.20;66.50;;;;;;4916386;29;20106;-77
2021/07/03 06:37:46;;;;;;;10.07;7.32;;;19.20;66.50;;;;;;4959148;28;20059;-77
2021/07/03 06:40:12;;;;;;;9.05;6.93;;;19.20;66.50;;;;;;4926469;28;20386;-76
2021/07/03 06:42:38;;;;;;;9.63;7.22;;;19.20;66.50;;;;;;4896259;29;20178;-78
2021/07/03 06:45:05;;;;;;;9.57;7.57;;;19.20;66.60;;;;;;4918018;29;20107;-77
2021/07/03 06:47:31;;;;;;;10.35;7.65;;;19.20;66.50;;;;;;4938178;28;20046;-78
2021/07/03 06:49:57;;;;;;;9.68;7.43;;;19.20;66.60;;;;;;4925812;29;20391;-78
2021/07/03 06:52:23;;;;;;;9.88;7.80;;;19.30;66.60;;;;;;4957864;28;20472;-77
2021/07/03 06:54:49;;;;;;;10.65;8.02;;;19.30;66.60;;;;;;4948054;29;20035;-78
2021/07/03 06:57:15;;;;;;;11.18;8.30;;;19.30;66.60;;;;;;4915623;29;20043;-78
2021/07/03 06:59:41;;;;;;;11.27;8.25;;;19.30;66.60;;;;;;4919697;28;20144;-77
2021/07/03 07:02:07;;;;;;;10.55;8.40;;;19.40;66.70;;;;;;4954724;28;20035;-78
2021/07/03 07:04:33;;;;;;;11.93;9.27;;;19.40;66.70;;;;;;4924068;29;20468;-78
2021/07/03 07:06:59;;;;;;;10.45;8.55;;;19.40;66.70;;;;;;4922530;29;20023;-77
2021/07/03 07:09:26;;;;;;;11.32;8.80;;;19.40;66.70;;;;;;4950675;29;20036;-77
2021/07/03 07:11:53;;;;;;;10.95;8.57;;;19.40;66.70;;;;;;4950094;29;20062;-77
2021/07/03 07:14:19;;;;;;;11.60;9.52;;;19.50;66.80;;;;;;4935277;29;20034;-77
2021/07/03 07:16:45;;;;;;;12.27;9.30;;;19.50;66.70;;;;;;4933229;29;20170;-77
2021/07/03 07:19:10;;;;;;;11.05;8.45;;;19.50;66.70;;;;;;4945871;29;20470;-77
2021/07/03 07:21:37;;;;;;;11.52;8.82;;;19.50;66.70;;;;;;4949913;29;20064;-78
2021/07/03 07:24:04;;;;;;;11.60;8.80;;;19.50;66.70;;;;;;4947337;29;20032;-79
2021/07/03 07:26:30;;;;;;;11.30;8.95;;;19.50;66.60;;;;;;4937768;29;20045;-77
2021/07/03 07:28:56;;;;;;;11.90;8.95;;;19.60;66.70;;;;;;4906328;29;20027;-76
2021/07/03 07:31:22;;;;;;;11.38;9.23;;;19.60;66.70;;;;;;4951424;28;20513;-77
2021/07/03 07:33:48;;;;;;;11.00;9.32;;;19.70;66.70;;;;;;4937805;28;20086;-77
2021/07/03 07:36:14;;;;;;;12.18;9.60;;;19.70;66.60;;;;;;4931761;29;20514;-79
2021/07/03 07:38:40;;;;;;;11.80;9.07;;;19.80;66.60;;;;;;4947706;29;20499;-77
2021/07/03 07:41:06;;;;;;;13.45;9.90;;;19.80;66.50;;;;;;4931551;29;20395;-77
2021/07/03 07:43:32;;;;;;;10.98;8.55;;;19.90;66.50;;;;;;4945449;29;20044;-78
2021/07/03 07:45:58;;;;;;;11.85;9.55;;;19.90;66.50;;;;;;4950488;29;20048;-76
2021/07/03 07:48:27;;;;;;;10.93;8.98;;;20.00;66.40;;;;;;4920120;28;20526;-77
2021/07/03 07:50:56;;;;;;;11.10;9.18;;;20.00;66.30;;;;;;4927703;28;20061;-77
2021/07/03 07:53:22;;;;;;;12.55;9.82;;;20.10;66.30;;;;;;4930776;29;20026;-79
2021/07/03 08:55:10;;;;;;;12.63;11.23;;;19.70;73.80;;;;;;4570390;27;15788129;-79
2021/07/03 08:57:44;;;;;;;14.48;11.90;;;20.00;75.80;;;;;;5089948;28;20125;-81
2021/07/03 09:00:11;;;;;;;;;;;20.50;75.50;;;;;;5103287;28;20027;-79
2021/07/03 09:02:41;;;;;;;12.63;10.50;;;21.00;74.80;;;;;;5129205;28;19946;-75
2021/07/03 09:05:44;;;;;;;14.65;11.23;;;21.50;73.50;;;;;;5110810;28;20032;-80
2021/07/03 09:08:11;;;;;;;13.45;11.02;;;21.90;72.40;;;;;;4993920;28;20564;-81
2021/07/03 09:10:39;;;;;;;12.98;10.95;;;22.20;71.30;;;;;;5083447;28;20036;-80
2021/07/03 09:13:07;;;;;;;13.35;10.50;;;22.50;70.60;;;;;;5083189;28;20085;-80
2021/07/03 09:15:35;;;;;;;12.65;10.80;;;22.80;69.90;;;;;;5093961;28;20482;-81
2021/07/03 09:18:06;;;;;;;13.65;10.70;;;23.00;69.20;;;;;;5095055;28;20337;-81
2021/07/03 09:20:36;;;;;;;11.07;9.45;;;23.20;68.80;;;;;;5094754;28;20055;-81
2021/07/03 09:23:07;;;;;;;11.20;8.73;;;23.40;68.30;;;;;;5094748;28;20424;-83
2021/07/03 09:25:35;;;;;;;9.50;8.18;;;23.50;67.60;;;;;;5094649;28;20027;-81
2021/07/03 09:28:10;;;;;;;9.73;8.30;;;23.70;66.80;;;;;;5091679;28;20524;-81
2021/07/03 09:30:36;;;;;;;9.05;7.63;;;23.80;66.30;;;;;;5093162;28;20019;-82
2021/07/03 09:33:02;;;;;;;9.35;7.43;;;24.00;65.70;;;;;;5109955;28;20034;-81
2021/07/03 09:35:28;;;;;;;8.85;7.45;;;24.10;65.20;;;;;;5089056;28;20024;-83
2021/07/03 09:38:06;;;;;;;9.57;8.07;;;24.30;64.90;;;;;;5092184;28;20043;-83
2021/07/03 09:40:35;;;;;;;8.32;6.53;;;24.40;64.50;;;;;;5102928;28;20053;-83
2021/07/03 09:43:09;;;;;;;9.88;7.20;;;24.50;64.00;;;;;;5080373;28;20027;-83
2021/07/03 09:45:35;;;;;;;;;;;24.60;63.60;;;;;;5092557;28;20028;-83
2021/07/03 09:48:03;;;;;;;7.97;5.75;;;24.70;63.40;;;;;;5094568;28;19930;-82
2021/07/03 09:50:29;;;;;;;7.93;6.70;;;24.80;62.80;;;;;;5091554;28;20485;-81
2021/07/03 09:52:59;;;;;;;8.45;7.10;;;24.90;63.10;;;;;;5094341;28;20035;-80
2021/07/03 09:55:25;;;;;;;9.45;7.40;;;25.00;62.60;;;;;;5091362;28;20451;-82
2021/07/03 09:57:52;;;;;;;8.65;6.30;;;25.10;62.30;;;;;;5100653;28;20034;-82
2021/07/03 10:00:18;;;;;;;9.00;7.38;;;25.20;62.10;;;;;;5102974;28;20022;-82
2021/07/03 10:02:44;;;;;;;9.23;7.25;;;25.30;61.90;;;;;;5091022;28;20028;-83
2021/07/03 10:05:11;;;;;;;9.52;7.78;;;25.40;61.70;;;;;;5103064;28;20092;-80
2021/07/03 10:07:42;;;;;;;10.70;7.68;;;25.50;61.60;;;;;;5077264;28;20490;-82
2021/07/03 10:10:12;;;;;;;8.98;7.13;;;25.60;61.50;;;;;;5097533;28;20030;-80
2021/07/03 10:12:43;;;;;;;8.40;6.90;;;25.70;61.20;;;;;;5076771;28;20487;-84
2021/07/03 10:15:09;;;;;;;8.18;5.88;;;25.80;61.10;;;;;;5078014;28;20024;-80
2021/07/03 10:17:36;;;;;;;7.28;5.95;;;25.90;60.90;;;;;;5080474;28;20024;-81
2021/07/03 10:20:15;;;;;;;7.57;6.03;;;25.90;61.20;;;;;;5080501;28;20484;-80
2021/07/03 10:22:54;;;;;;;7.65;6.10;;;26.00;60.20;;;;;;5069809;28;20403;-82
2021/07/03 10:25:33;;;;;;;6.53;5.28;;;26.10;60.10;;;;;;5077861;28;20038;-82
2021/07/03 10:28:01;;;;;;;6.60;5.30;;;26.20;59.90;;;;;;5096558;28;20028;-80
2021/07/03 10:30:31;;;;;;;7.55;5.68;;;26.30;59.50;;;;;;5045971;28;20024;-81
2021/07/03 10:33:00;;;;;;;7.07;5.20;;;26.40;59.20;;;;;;5079840;28;20059;-81
2021/07/03 10:35:26;;;;;;;6.60;5.40;;;26.40;58.90;;;;;;5074374;28;20008;-82
2021/07/03 10:37:54;;;;;;;6.43;5.43;;;26.50;58.70;;;;;;5076305;28;20024;-83
2021/07/03 10:40:20;;;;;;;6.57;5.53;;;26.60;58.60;;;;;;5072773;28;20020;-83
2021/07/03 10:42:47;;;;;;;6.53;5.32;;;26.60;58.30;;;;;;5079529;28;20531;-84
2021/07/03 10:45:20;;;;;;;7.20;5.15;;;26.70;58.20;;;;;;5095387;28;20114;-83
2021/07/03 10:47:46;;;;;;;6.57;5.15;;;26.80;58.00;;;;;;5096874;28;20023;-84
2021/07/03 10:50:24;;;;;;;7.15;5.72;;;26.90;57.80;;;;;;5077537;28;20047;-82
2021/07/03 10:52:58;;;;;;;6.47;5.22;;;27.00;57.90;;;;;;5095133;28;20382;-83
2021/07/03 10:55:40;;;;;;;7.07;5.20;;;27.10;57.80;;;;;;5069161;28;20020;-89
2021/07/03 10:58:17;;;;;;;7.10;5.13;;;27.10;57.70;;;;;;5074716;28;20027;-86
2021/07/03 11:00:43;;;;;;;6.30;4.72;;;27.20;57.70;;;;;;5105228;28;20056;-81
2021/07/03 11:03:19;;;;;;;8.10;5.03;;;27.30;57.50;;;;;;5078057;28;20112;-78
2021/07/03 11:05:45;;;;;;;5.57;4.70;;;27.40;57.30;;;;;;5075237;28;20028;-81
2021/07/03 11:08:12;;;;;;;5.85;4.90;;;27.50;57.10;;;;;;5095461;28;20032;-80
2021/07/03 11:10:42;;;;;;;6.68;4.88;;;27.50;57.10;;;;;;5075946;28;20032;-79
2021/07/03 11:13:19;;;;;;;5.65;4.07;;;27.60;57.30;;;;;;5096201;28;20109;-82
2021/07/03 11:15:45;;;;;;;5.50;4.65;;;27.70;56.70;;;;;;5075511;28;20475;-83
2021/07/03 11:18:11;;;;;;;5.45;4.47;;;27.70;56.00;;;;;;5094915;28;20102;-83
2021/07/03 11:20:40;;;;;;;6.80;4.82;;;27.70;55.70;;;;;;5079161;28;20165;-82
2021/07/03 11:23:08;;;;;;;7.18;4.80;;;27.80;55.80;;;;;;5079001;28;20076;-83
2021/07/03 11:25:36;;;;;;;5.93;4.63;;;27.80;55.80;;;;;;5052996;28;20430;-81
2021/07/03 11:28:17;;;;;;;7.43;5.57;;;27.90;55.80;;;;;;5070124;28;20035;-82
2021/07/03 11:30:45;;;;;;;5.85;4.85;;;27.90;55.30;;;;;;5078853;28;20374;-83
2021/07/03 11:33:14;;;;;;;6.68;5.05;;;28.00;55.00;;;;;;5078740;28;20040;-83
2021/07/03 11:35:44;;;;;;;6.75;5.13;;;28.00;54.90;;;;;;5077687;28;20434;-83
2021/07/03 11:38:11;;;;;;;5.28;4.47;;;28.00;54.80;;;;;;5067114;28;20026;-83
2021/07/03 11:40:37;;;;;;;5.70;4.35;;;28.10;54.80;;;;;;5076809;28;20085;-78
2021/07/03 11:43:04;;;;;;;5.47;4.70;;;28.10;55.00;;;;;;5077986;28;20123;-84
2021/07/03 11:45:33;;;;;;;5.55;4.50;;;28.10;55.00;;;;;;5075626;28;20486;-85
2021/07/03 11:48:06;;;;;;;5.63;4.40;;;28.10;55.30;;;;;;5077931;28;20024;-86
2021/07/03 11:50:35;;;;;;;5.93;4.57;;;28.20;55.80;;;;;;5095352;28;20100;-85
2021/07/03 11:53:04;;;;;;;5.50;3.72;;;28.20;56.00;;;;;;5077741;28;20044;-85
2021/07/03 11:55:38;;;;;;;4.90;3.80;;;28.20;56.30;;;;;;5075182;28;20024;-86
2021/07/03 11:58:05;;;;;;;;;;;28.30;56.60;;;;;;5091931;28;20524;-86
2021/07/03 12:00:33;;;;;;;5.40;3.80;;;28.30;56.80;;;;;;5067246;28;19904;-86
2021/07/03 12:03:00;;;;;;;4.50;3.53;;;28.40;56.90;;;;;;5077100;28;20059;-85
2021/07/03 12:05:36;;;;;;;4.68;3.78;;;28.40;57.20;;;;;;5079074;28;20028;-85
2021/07/03 12:08:10;;;;;;;4.57;3.45;;;28.40;57.50;;;;;;5078417;28;20084;-85
2021/07/03 12:10:51;;;;;;;4.60;3.75;;;28.40;57.60;;;;;;5079055;28;20028;-85
2021/07/03 12:13:25;;;;;;;4.82;3.55;;;28.50;57.90;;;;;;5095610;28;20031;-85
2021/07/03 12:15:54;;;;;;;4.57;3.47;;;28.50;58.00;;;;;;5087135;28;20059;-84
2021/07/03 12:18:32;;;;;;;4.45;3.50;;;28.50;58.00;;;;;;5069952;28;20032;-85
2021/07/03 12:21:24;;;;;;;4.25;3.42;;;28.60;58.20;;;;;;5070093;28;20114;-84
2021/07/03 12:23:56;;;;;;;5.10;3.30;;;28.60;58.30;;;;;;5075186;28;20475;-85
2021/07/03 12:26:34;;;;;;;4.45;3.38;;;28.60;58.10;;;;;;5076404;28;20043;-84
2021/07/03 12:29:08;;;;;;;3.95;3.17;;;28.60;58.20;;;;;;5074817;28;20035;-85
2021/07/03 12:31:40;;;;;;;4.10;3.40;;;28.60;58.10;;;;;;5078362;28;20028;-84
2021/07/03 12:34:11;;;;;;;4.40;3.38;;;28.70;58.20;;;;;;5075131;28;20063;-85
2021/07/03 12:36:39;;;;;;;5.15;3.80;;;28.70;58.10;;;;;;5076123;28;20028;-85
2021/07/03 12:39:14;;;;;;;4.72;3.50;;;28.70;58.10;;;;;;5078481;28;20019;-85
2021/07/03 12:41:43;;;;;;;5.53;3.65;;;28.70;58.10;;;;;;5087319;28;20031;-85
2021/07/03 12:44:09;;;;;;;4.13;3.10;;;28.80;58.10;;;;;;5069574;28;20054;-85
2021/07/03 12:46:37;;;;;;;4.43;3.40;;;28.80;58.10;;;;;;5069920;28;20047;-85
2021/07/03 12:49:04;;;;;;;4.28;3.10;;;28.80;58.10;;;;;;5070259;28;20019;-85
2021/07/03 12:51:33;;;;;;;4.15;3.42;;;28.80;58.10;;;;;;5078629;28;20028;-86
2021/07/03 12:54:00;;;;;;;4.68;3.50;;;28.80;58.10;;;;;;5077085;28;20047;-85
2021/07/03 12:56:26;;;;;;;4.53;3.40;;;28.90;58.10;;;;;;5078443;28;20019;-85
2021/07/03 12:58:59;;;;;;;4.30;3.40;;;28.90;58.10;;;;;;5078359;28;20015;-85
2021/07/03 13:01:33;;;;;;;4.05;3.13;;;28.90;58.10;;;;;;5078223;28;20023;-85
2021/07/03 13:04:00;;;;;;;3.70;3.10;;;28.90;58.10;;;;;;5078238;28;20042;-86
2021/07/03 13:06:27;;;;;;;4.18;3.47;;;28.90;58.10;;;;;;5078665;28;20119;-85
2021/07/03 13:08:53;;;;;;;4.15;3.20;;;28.90;58.10;;;;;;5074907;28;20028;-86
2021/07/03 13:11:20;;;;;;;4.10;3.17;;;29.00;58.10;;;;;;5095230;28;20039;-86
2021/07/03 13:13:46;;;;;;;4.20;3.30;;;29.00;58.00;;;;;;5074973;28;20078;-85
2021/07/03 13:16:12;;;;;;;4.93;3.53;;;29.00;57.90;;;;;;5095096;28;20032;-85
2021/07/03 13:18:37;;;;;;;4.97;3.50;;;29.00;57.90;;;;;;5074753;28;20109;-85
2021/07/03 13:21:04;;;;;;;4.28;3.40;;;29.00;57.90;;;;;;5077931;28;20119;-85
2021/07/03 13:23:34;;;;;;;3.47;2.95;;;29.00;57.90;;;;;;5077776;28;20031;-86
2021/07/03 13:26:03;;;;;;;4.10;3.10;;;29.00;57.90;;;;;;5078361;28;20020;-86
2021/07/03 13:28:28;;;;;;;3.63;3.00;;;29.10;57.90;;;;;;5076198;28;20020;-86
2021/07/03 13:30:54;;;;;;;3.80;3.30;;;29.10;57.90;;;;;;5078390;28;20119;-85
2021/07/03 13:33:20;;;;;;;4.55;3.17;;;29.10;57.90;;;;;;5074705;28;20027;-85
2021/07/03 13:35:46;;;;;;;4.10;3.40;;;29.10;57.90;;;;;;5086568;28;20024;-86
2021/07/03 13:38:12;;;;;;;4.32;3.17;;;29.10;57.90;;;;;;5078028;28;20028;-85
2021/07/03 13:40:38;;;;;;;4.30;3.53;;;29.00;57.80;;;;;;5080320;28;20020;-85
2021/07/03 13:43:04;;;;;;;4.25;3.30;;;29.10;57.90;;;;;;5081745;28;20032;-86
2021/07/03 13:45:30;;;;;;;3.88;3.13;;;29.10;57.90;;;;;;5081698;28;20032;-85
2021/07/03 13:47:56;;;;;;;4.20;3.13;;;29.10;57.90;;;;;;5081718;28;20016;-85
2021/07/03 13:50:22;;;;;;;4.15;3.42;;;29.10;57.90;;;;;;5081454;28;20024;-86
2021/07/03 13:52:48;;;;;;;4.38;3.50;;;29.10;57.80;;;;;;5085198;28;20123;-85
2021/07/03 13:55:15;;;;;;;4.15;3.20;;;29.10;57.90;;;;;;5097682;28;20024;-85